sensor_id;sensor_type;location;lat;lon;timestamp;P1;durP1;ratioP1;P2;durP2;ratioP2
4638;SDS011;2332;38.646;-9.154;2022-08-11T00:02:25;14.07;;;8.40;;
4638;SDS011;2332;38.646;-9.154;2022-08-11T00:05:00;19.83;;;9.37;;
4638;SDS011;2332;38.646;-9.154;2022-08-11T00:07:46;17.00;;;9.60;;
4638;SDS011;2332;38.646;-9.154;2022-08-11T00:10:19;16.07;;;8.50;;
4638;SDS011;2332;38.646;-9.154;2022-08-11T00:12:52;21.37;;;7.83;;
4638;SDS011;2332;38.646;-9.154;2022-08-11T00:15:21;17.30;;;9.20;;
4638;SDS011;2332;38.646;-9.154;2022-08-11T00:17:47;17.10;;;8.47;;
4638;SDS011;2332;38.646;-9.154;2022-08-11T00:20:15;21.77;;;9.17;;
4638;SDS011;2332;38.646;-9.154;2022-08-11T00:22:42;19.27;;;9.00;;
4638;SDS011;2332;38.646;-9.154;2022-08-11T00:25:26;18.33;;;8.80;;
4638;SDS011;2332;38.646;-9.154;2022-08-11T00:27:52;19.13;;;8.67;;
4638;SDS011;2332;38.646;-9.154;2022-08-11T00:30:18;15.53;;;8.60;;
4638;SDS011;2332;38.646;-9.154;2022-08-11T00:32:45;19.53;;;8.80;;
4638;SDS011;2332;38.646;-9.154;2022-08-11T00:35:19;20.03;;;8.50;;
4638;SDS011;2332;38.646;-9.154;2022-08-11T00:37:51;18.03;;;9.23;;
4638;SDS011;2332;38.646;-9.154;2022-08-11T00:40:22;24.10;;;8.80;;
4638;SDS011;2332;38.646;-9.154;2022-08-11T00:45:45;18.87;;;9.47;;
4638;SDS011;2332;38.646;-9.154;2022-08-11T00:51:37;13.63;;;8.03;;
4638;SDS011;2332;38.646;-9.154;2022-08-11T01:08:29;15.63;;;8.73;;
4638;SDS011;2332;38.646;-9.154;2022-08-11T01:19:50;16.50;;;8.70;;
4638;SDS011;2332;38.646;-9.154;2022-08-11T01:25:16;23.37;;;9.93;;
4638;SDS011;2332;38.646;-9.154;2022-08-11T01:33:53;26.10;;;10.13;;
4638;SDS011;2332;38.646;-9.154;2022-08-11T01:42:51;16.17;;;9.77;;
4638;SDS011;2332;38.646;-9.154;2022-08-11T01:48:43;22.10;;;9.80;;
4638;SDS011;2332;38.646;-9.154;2022-08-11T01:54:30;24.77;;;11.33;;
4638;SDS011;2332;38.646;-9.154;2022-08-11T01:59:35;27.90;;;10.60;;
4638;SDS011;2332;38.646;-9.154;2022-08-11T02:05:28;16.17;;;9.87;;
4638;SDS011;2332;38.646;-9.154;2022-08-11T02:08:13;28.80;;;9.37;;
4638;SDS011;2332;38.646;-9.154;2022-08-11T02:13:50;22.00;;;10.00;;
4638;SDS011;2332;38.646;-9.154;2022-08-11T02:24:57;13.90;;;9.80;;
4638;SDS011;2332;38.646;-9.154;2022-08-11T02:27:33;20.80;;;11.73;;
4638;SDS011;2332;38.646;-9.154;2022-08-11T02:35:41;23.53;;;11.20;;
4638;SDS011;2332;38.646;-9.154;2022-08-11T02:43:58;11.77;;;9.17;;
4638;SDS011;2332;38.646;-9.154;2022-08-11T02:46:55;17.03;;;9.73;;
4638;SDS011;2332;38.646;-9.154;2022-08-11T02:57:42;14.43;;;10.30;;
4638;SDS011;2332;38.646;-9.154;2022-08-11T03:00:15;16.73;;;10.10;;
4638;SDS011;2332;38.646;-9.154;2022-08-11T03:13:53;20.40;;;10.60;;
4638;SDS011;2332;38.646;-9.154;2022-08-11T03:16:59;24.90;;;11.13;;
4638;SDS011;2332;38.646;-9.154;2022-08-11T03:22:25;24.33;;;11.07;;
4638;SDS011;2332;38.646;-9.154;2022-08-11T03:25:29;19.20;;;10.07;;
4638;SDS011;2332;38.646;-9.154;2022-08-11T03:31:24;23.93;;;11.50;;
4638;SDS011;2332;38.646;-9.154;2022-08-11T03:34:00;19.27;;;10.83;;
4638;SDS011;2332;38.646;-9.154;2022-08-11T03:39:16;18.90;;;10.30;;
4638;SDS011;2332;38.646;-9.154;2022-08-11T03:44:31;18.60;;;10.70;;
4638;SDS011;2332;38.646;-9.154;2022-08-11T03:47:09;22.73;;;11.07;;
4638;SDS011;2332;38.646;-9.154;2022-08-11T03:50:09;18.57;;;10.43;;
4638;SDS011;2332;38.646;-9.154;2022-08-11T04:01:54;22.83;;;10.90;;
4638;SDS011;2332;38.646;-9.154;2022-08-11T04:18:30;25.50;;;12.03;;
4638;SDS011;2332;38.646;-9.154;2022-08-11T04:21:14;25.57;;;12.63;;
4638;SDS011;2332;38.646;-9.154;2022-08-11T04:26:35;22.27;;;11.03;;
4638;SDS011;2332;38.646;-9.154;2022-08-11T04:32:30;27.50;;;12.30;;
4638;SDS011;2332;38.646;-9.154;2022-08-11T05:01:31;19.93;;;11.87;;
4638;SDS011;2332;38.646;-9.154;2022-08-11T05:04:29;22.27;;;12.37;;
4638;SDS011;2332;38.646;-9.154;2022-08-11T05:13:04;21.93;;;12.97;;
4638;SDS011;2332;38.646;-9.154;2022-08-11T05:15:56;23.00;;;11.70;;
4638;SDS011;2332;38.646;-9.154;2022-08-11T05:18:46;24.73;;;11.60;;
4638;SDS011;2332;38.646;-9.154;2022-08-11T05:21:33;22.57;;;12.50;;
4638;SDS011;2332;38.646;-9.154;2022-08-11T05:24:31;26.37;;;12.47;;
4638;SDS011;2332;38.646;-9.154;2022-08-11T05:27:18;22.33;;;11.80;;
4638;SDS011;2332;38.646;-9.154;2022-08-11T05:30:04;21.90;;;11.40;;
4638;SDS011;2332;38.646;-9.154;2022-08-11T05:32:58;24.80;;;12.77;;
4638;SDS011;2332;38.646;-9.154;2022-08-11T05:35:46;19.03;;;11.40;;
4638;SDS011;2332;38.646;-9.154;2022-08-11T05:38:48;26.90;;;12.63;;
4638;SDS011;2332;38.646;-9.154;2022-08-11T05:41:24;23.20;;;11.30;;
4638;SDS011;2332;38.646;-9.154;2022-08-11T05:44:09;20.30;;;12.07;;
4638;SDS011;2332;38.646;-9.154;2022-08-11T05:46:54;18.40;;;12.53;;
4638;SDS011;2332;38.646;-9.154;2022-08-11T05:49:38;33.07;;;13.20;;
4638;SDS011;2332;38.646;-9.154;2022-08-11T05:52:24;21.23;;;12.70;;
4638;SDS011;2332;38.646;-9.154;2022-08-11T05:55:10;21.80;;;13.30;;
4638;SDS011;2332;38.646;-9.154;2022-08-11T05:57:55;70.40;;;15.77;;
4638;SDS011;2332;38.646;-9.154;2022-08-11T06:00:23;25.83;;;12.20;;
4638;SDS011;2332;38.646;-9.154;2022-08-11T06:02:51;20.57;;;11.63;;
4638;SDS011;2332;38.646;-9.154;2022-08-11T06:05:19;19.27;;;12.13;;
4638;SDS011;2332;38.646;-9.154;2022-08-11T06:07:46;18.97;;;11.53;;
4638;SDS011;2332;38.646;-9.154;2022-08-11T06:10:12;17.60;;;10.77;;
4638;SDS011;2332;38.646;-9.154;2022-08-11T06:12:39;20.33;;;10.60;;
4638;SDS011;2332;38.646;-9.154;2022-08-11T06:15:05;27.43;;;10.43;;
4638;SDS011;2332;38.646;-9.154;2022-08-11T06:17:33;21.20;;;11.60;;
4638;SDS011;2332;38.646;-9.154;2022-08-11T06:20:07;16.83;;;10.57;;
4638;SDS011;2332;38.646;-9.154;2022-08-11T06:22:47;23.23;;;11.53;;
4638;SDS011;2332;38.646;-9.154;2022-08-11T06:25:19;20.33;;;11.87;;
4638;SDS011;2332;38.646;-9.154;2022-08-11T06:27:45;21.23;;;11.33;;
4638;SDS011;2332;38.646;-9.154;2022-08-11T06:30:12;26.17;;;11.67;;
4638;SDS011;2332;38.646;-9.154;2022-08-11T06:32:45;21.83;;;10.73;;
4638;SDS011;2332;38.646;-9.154;2022-08-11T06:35:14;18.90;;;10.27;;
4638;SDS011;2332;38.646;-9.154;2022-08-11T06:38:14;18.67;;;11.00;;
4638;SDS011;2332;38.646;-9.154;2022-08-11T06:44:02;29.93;;;11.07;;
4638;SDS011;2332;38.646;-9.154;2022-08-11T06:46:34;17.33;;;10.00;;
4638;SDS011;2332;38.646;-9.154;2022-08-11T06:49:14;17.50;;;9.07;;
4638;SDS011;2332;38.646;-9.154;2022-08-11T06:51:59;23.97;;;9.43;;
4638;SDS011;2332;38.646;-9.154;2022-08-11T06:54:31;20.37;;;11.63;;
4638;SDS011;2332;38.646;-9.154;2022-08-11T06:57:04;20.47;;;10.30;;
4638;SDS011;2332;38.646;-9.154;2022-08-11T06:59:49;18.37;;;10.57;;
4638;SDS011;2332;38.646;-9.154;2022-08-11T07:02:41;13.07;;;8.23;;
4638;SDS011;2332;38.646;-9.154;2022-08-11T07:05:13;15.10;;;9.13;;
4638;SDS011;2332;38.646;-9.154;2022-08-11T07:13:50;15.27;;;9.60;;
4638;SDS011;2332;38.646;-9.154;2022-08-11T07:16:35;17.43;;;10.00;;
4638;SDS011;2332;38.646;-9.154;2022-08-11T07:19:04;19.97;;;10.30;;
4638;SDS011;2332;38.646;-9.154;2022-08-11T07:21:49;26.80;;;10.70;;
4638;SDS011;2332;38.646;-9.154;2022-08-11T07:24:38;14.30;;;10.00;;
4638;SDS011;2332;38.646;-9.154;2022-08-11T07:27:24;25.50;;;9.27;;
4638;SDS011;2332;38.646;-9.154;2022-08-11T07:30:11;16.53;;;7.83;;
4638;SDS011;2332;38.646;-9.154;2022-08-11T07:32:44;11.00;;;7.80;;
4638;SDS011;2332;38.646;-9.154;2022-08-11T07:35:33;14.80;;;7.00;;
4638;SDS011;2332;38.646;-9.154;2022-08-11T07:38:01;11.53;;;6.77;;
4638;SDS011;2332;38.646;-9.154;2022-08-11T07:40:31;11.63;;;6.53;;
4638;SDS011;2332;38.646;-9.154;2022-08-11T07:42:57;13.70;;;6.33;;
4638;SDS011;2332;38.646;-9.154;2022-08-11T07:45:23;12.73;;;6.40;;
4638;SDS011;2332;38.646;-9.154;2022-08-11T07:48:09;10.10;;;6.50;;
4638;SDS011;2332;38.646;-9.154;2022-08-11T07:50:54;13.87;;;6.23;;
4638;SDS011;2332;38.646;-9.154;2022-08-11T07:53:39;14.83;;;6.23;;
4638;SDS011;2332;38.646;-9.154;2022-08-11T07:56:04;13.73;;;6.27;;
4638;SDS011;2332;38.646;-9.154;2022-08-11T07:58:31;15.17;;;6.37;;
4638;SDS011;2332;38.646;-9.154;2022-08-11T08:01:19;12.97;;;7.00;;
4638;SDS011;2332;38.646;-9.154;2022-08-11T08:04:05;12.87;;;5.80;;
4638;SDS011;2332;38.646;-9.154;2022-08-11T08:06:50;10.80;;;6.00;;
4638;SDS011;2332;38.646;-9.154;2022-08-11T08:09:35;17.00;;;6.30;;
4638;SDS011;2332;38.646;-9.154;2022-08-11T08:12:20;8.73;;;5.63;;
4638;SDS011;2332;38.646;-9.154;2022-08-11T08:15:11;11.90;;;6.00;;
4638;SDS011;2332;38.646;-9.154;2022-08-11T08:17:58;13.60;;;6.17;;
4638;SDS011;2332;38.646;-9.154;2022-08-11T08:20:38;18.13;;;7.40;;
4638;SDS011;2332;38.646;-9.154;2022-08-11T08:23:07;15.30;;;8.10;;
4638;SDS011;2332;38.646;-9.154;2022-08-11T08:25:34;13.33;;;7.50;;
4638;SDS011;2332;38.646;-9.154;2022-08-11T08:28:05;14.70;;;8.63;;
4638;SDS011;2332;38.646;-9.154;2022-08-11T08:30:34;18.83;;;8.97;;
4638;SDS011;2332;38.646;-9.154;2022-08-11T08:33:29;15.70;;;9.20;;
4638;SDS011;2332;38.646;-9.154;2022-08-11T08:35:56;10.50;;;8.20;;
4638;SDS011;2332;38.646;-9.154;2022-08-11T08:38:49;17.33;;;8.40;;
4638;SDS011;2332;38.646;-9.154;2022-08-11T08:41:19;16.93;;;9.03;;
4638;SDS011;2332;38.646;-9.154;2022-08-11T08:43:51;16.40;;;7.67;;
4638;SDS011;2332;38.646;-9.154;2022-08-11T08:46:24;35.93;;;8.43;;
4638;SDS011;2332;38.646;-9.154;2022-08-11T08:48:59;21.10;;;7.77;;
4638;SDS011;2332;38.646;-9.154;2022-08-11T08:51:26;18.83;;;7.20;;
4638;SDS011;2332;38.646;-9.154;2022-08-11T08:54:08;17.60;;;8.00;;
4638;SDS011;2332;38.646;-9.154;2022-08-11T08:56:38;19.90;;;7.13;;
4638;SDS011;2332;38.646;-9.154;2022-08-11T08:59:05;12.73;;;7.20;;
4638;SDS011;2332;38.646;-9.154;2022-08-11T09:01:34;16.70;;;7.53;;
4638;SDS011;2332;38.646;-9.154;2022-08-11T09:04:02;12.53;;;6.43;;
4638;SDS011;2332;38.646;-9.154;2022-08-11T09:06:32;15.17;;;5.80;;
4638;SDS011;2332;38.646;-9.154;2022-08-11T09:08:59;7.43;;;5.00;;
4638;SDS011;2332;38.646;-9.154;2022-08-11T09:11:25;11.90;;;4.50;;
4638;SDS011;2332;38.646;-9.154;2022-08-11T09:14:09;10.20;;;5.27;;
4638;SDS011;2332;38.646;-9.154;2022-08-11T09:16:35;9.10;;;4.47;;
4638;SDS011;2332;38.646;-9.154;2022-08-11T09:19:03;15.40;;;4.90;;
4638;SDS011;2332;38.646;-9.154;2022-08-11T09:21:28;15.97;;;5.20;;
4638;SDS011;2332;38.646;-9.154;2022-08-11T09:23:56;6.50;;;4.70;;
4638;SDS011;2332;38.646;-9.154;2022-08-11T09:26:41;5.47;;;4.63;;
4638;SDS011;2332;38.646;-9.154;2022-08-11T09:29:27;14.10;;;5.47;;
4638;SDS011;2332;38.646;-9.154;2022-08-11T09:31:53;7.60;;;5.70;;
4638;SDS011;2332;38.646;-9.154;2022-08-11T09:34:20;6.80;;;5.00;;
4638;SDS011;2332;38.646;-9.154;2022-08-11T09:36:46;7.83;;;5.43;;
4638;SDS011;2332;38.646;-9.154;2022-08-11T09:39:31;11.73;;;5.00;;
4638;SDS011;2332;38.646;-9.154;2022-08-11T09:42:19;8.73;;;4.93;;
4638;SDS011;2332;38.646;-9.154;2022-08-11T09:44:45;7.60;;;4.87;;
4638;SDS011;2332;38.646;-9.154;2022-08-11T09:47:17;12.97;;;5.23;;
4638;SDS011;2332;38.646;-9.154;2022-08-11T09:49:48;6.77;;;4.57;;
4638;SDS011;2332;38.646;-9.154;2022-08-11T09:52:16;6.40;;;4.60;;
4638;SDS011;2332;38.646;-9.154;2022-08-11T09:54:42;9.87;;;3.50;;
4638;SDS011;2332;38.646;-9.154;2022-08-11T09:57:08;11.50;;;5.13;;
4638;SDS011;2332;38.646;-9.154;2022-08-11T09:59:52;6.00;;;4.37;;
4638;SDS011;2332;38.646;-9.154;2022-08-11T10:02:22;6.30;;;4.33;;
4638;SDS011;2332;38.646;-9.154;2022-08-11T10:04:51;10.83;;;3.90;;
4638;SDS011;2332;38.646;-9.154;2022-08-11T10:07:41;8.53;;;4.60;;
4638;SDS011;2332;38.646;-9.154;2022-08-11T10:10:08;10.43;;;5.17;;
4638;SDS011;2332;38.646;-9.154;2022-08-11T10:12:35;8.20;;;4.10;;
4638;SDS011;2332;38.646;-9.154;2022-08-11T10:15:08;5.53;;;4.50;;
4638;SDS011;2332;38.646;-9.154;2022-08-11T10:18:08;9.07;;;4.57;;
4638;SDS011;2332;38.646;-9.154;2022-08-11T10:20:56;10.67;;;3.93;;
4638;SDS011;2332;38.646;-9.154;2022-08-11T10:23:25;5.73;;;3.87;;
4638;SDS011;2332;38.646;-9.154;2022-08-11T10:26:10;12.00;;;4.20;;
4638;SDS011;2332;38.646;-9.154;2022-08-11T10:28:55;7.77;;;4.50;;
4638;SDS011;2332;38.646;-9.154;2022-08-11T10:31:20;10.80;;;4.40;;
4638;SDS011;2332;38.646;-9.154;2022-08-11T10:34:06;11.57;;;4.43;;
4638;SDS011;2332;38.646;-9.154;2022-08-11T10:36:33;6.77;;;4.00;;
4638;SDS011;2332;38.646;-9.154;2022-08-11T10:39:13;4.67;;;4.03;;
4638;SDS011;2332;38.646;-9.154;2022-08-11T10:41:42;9.10;;;4.80;;
4638;SDS011;2332;38.646;-9.154;2022-08-11T10:44:27;10.60;;;4.40;;
4638;SDS011;2332;38.646;-9.154;2022-08-11T10:46:54;9.73;;;4.50;;
4638;SDS011;2332;38.646;-9.154;2022-08-11T10:49:38;8.83;;;4.67;;
4638;SDS011;2332;38.646;-9.154;2022-08-11T10:52:04;7.13;;;4.47;;
4638;SDS011;2332;38.646;-9.154;2022-08-11T10:54:48;6.70;;;3.70;;
4638;SDS011;2332;38.646;-9.154;2022-08-11T10:57:32;8.33;;;4.13;;
4638;SDS011;2332;38.646;-9.154;2022-08-11T11:00:16;7.93;;;5.00;;
4638;SDS011;2332;38.646;-9.154;2022-08-11T11:02:42;10.30;;;4.57;;
4638;SDS011;2332;38.646;-9.154;2022-08-11T11:05:25;10.47;;;4.77;;
4638;SDS011;2332;38.646;-9.154;2022-08-11T11:07:58;7.17;;;4.50;;
4638;SDS011;2332;38.646;-9.154;2022-08-11T11:10:49;5.73;;;3.83;;
4638;SDS011;2332;38.646;-9.154;2022-08-11T11:13:15;7.03;;;4.20;;
4638;SDS011;2332;38.646;-9.154;2022-08-11T11:15:59;9.47;;;4.87;;
4638;SDS011;2332;38.646;-9.154;2022-08-11T11:18:43;5.20;;;3.90;;
4638;SDS011;2332;38.646;-9.154;2022-08-11T11:21:10;7.77;;;4.03;;
4638;SDS011;2332;38.646;-9.154;2022-08-11T11:23:42;7.33;;;3.97;;
4638;SDS011;2332;38.646;-9.154;2022-08-11T11:37:06;6.17;;;3.93;;
4638;SDS011;2332;38.646;-9.154;2022-08-11T11:39:32;11.87;;;4.47;;
4638;SDS011;2332;38.646;-9.154;2022-08-11T11:42:01;10.70;;;4.33;;
4638;SDS011;2332;38.646;-9.154;2022-08-11T11:44:29;10.30;;;5.00;;
4638;SDS011;2332;38.646;-9.154;2022-08-11T11:46:56;8.43;;;4.23;;
4638;SDS011;2332;38.646;-9.154;2022-08-11T11:49:23;6.20;;;4.03;;
4638;SDS011;2332;38.646;-9.154;2022-08-11T11:51:51;10.37;;;4.10;;
4638;SDS011;2332;38.646;-9.154;2022-08-11T11:54:20;8.10;;;4.80;;
4638;SDS011;2332;38.646;-9.154;2022-08-11T11:56:47;10.90;;;4.03;;
4638;SDS011;2332;38.646;-9.154;2022-08-11T11:59:18;7.70;;;3.90;;
4638;SDS011;2332;38.646;-9.154;2022-08-11T12:02:03;6.03;;;4.57;;
4638;SDS011;2332;38.646;-9.154;2022-08-11T12:04:29;4.53;;;4.13;;
4638;SDS011;2332;38.646;-9.154;2022-08-11T12:06:55;29.97;;;5.10;;
4638;SDS011;2332;38.646;-9.154;2022-08-11T12:09:41;10.63;;;5.07;;
4638;SDS011;2332;38.646;-9.154;2022-08-11T12:12:07;6.57;;;4.33;;
4638;SDS011;2332;38.646;-9.154;2022-08-11T12:14:52;8.17;;;4.67;;
4638;SDS011;2332;38.646;-9.154;2022-08-11T12:17:18;11.47;;;3.97;;
4638;SDS011;2332;38.646;-9.154;2022-08-11T12:19:44;6.13;;;4.30;;
4638;SDS011;2332;38.646;-9.154;2022-08-11T12:22:10;5.90;;;3.70;;
4638;SDS011;2332;38.646;-9.154;2022-08-11T12:24:54;9.07;;;4.23;;
4638;SDS011;2332;38.646;-9.154;2022-08-11T12:27:38;7.60;;;4.27;;
4638;SDS011;2332;38.646;-9.154;2022-08-11T12:30:04;4.73;;;4.20;;
4638;SDS011;2332;38.646;-9.154;2022-08-11T12:32:33;6.30;;;4.47;;
4638;SDS011;2332;38.646;-9.154;2022-08-11T12:34:59;8.47;;;3.93;;
4638;SDS011;2332;38.646;-9.154;2022-08-11T12:37:39;7.27;;;4.60;;
4638;SDS011;2332;38.646;-9.154;2022-08-11T12:40:10;9.20;;;4.40;;
4638;SDS011;2332;38.646;-9.154;2022-08-11T12:42:57;5.33;;;3.90;;
4638;SDS011;2332;38.646;-9.154;2022-08-11T12:45:44;7.20;;;4.23;;
4638;SDS011;2332;38.646;-9.154;2022-08-11T12:51:15;8.03;;;3.90;;
4638;SDS011;2332;38.646;-9.154;2022-08-11T12:56:47;8.93;;;3.90;;
4638;SDS011;2332;38.646;-9.154;2022-08-11T12:59:33;9.83;;;5.10;;
4638;SDS011;2332;38.646;-9.154;2022-08-11T13:02:19;6.60;;;4.43;;
4638;SDS011;2332;38.646;-9.154;2022-08-11T13:05:05;7.70;;;5.03;;
4638;SDS011;2332;38.646;-9.154;2022-08-11T13:07:32;9.27;;;5.00;;
4638;SDS011;2332;38.646;-9.154;2022-08-11T13:10:00;7.97;;;4.60;;
4638;SDS011;2332;38.646;-9.154;2022-08-11T13:12:27;8.90;;;4.87;;
4638;SDS011;2332;38.646;-9.154;2022-08-11T13:15:13;9.83;;;5.10;;
4638;SDS011;2332;38.646;-9.154;2022-08-11T13:17:41;11.90;;;5.13;;
4638;SDS011;2332;38.646;-9.154;2022-08-11T13:20:11;13.47;;;4.80;;
4638;SDS011;2332;38.646;-9.154;2022-08-11T13:22:38;20.73;;;4.83;;
4638;SDS011;2332;38.646;-9.154;2022-08-11T13:25:09;11.37;;;4.40;;
4638;SDS011;2332;38.646;-9.154;2022-08-11T13:27:35;7.60;;;4.00;;
4638;SDS011;2332;38.646;-9.154;2022-08-11T13:30:00;9.00;;;4.00;;
4638;SDS011;2332;38.646;-9.154;2022-08-11T13:32:46;11.37;;;4.87;;
4638;SDS011;2332;38.646;-9.154;2022-08-11T13:35:12;6.27;;;4.33;;
4638;SDS011;2332;38.646;-9.154;2022-08-11T13:37:40;9.20;;;4.23;;
4638;SDS011;2332;38.646;-9.154;2022-08-11T13:40:09;6.87;;;4.23;;
4638;SDS011;2332;38.646;-9.154;2022-08-11T13:42:35;8.30;;;4.00;;
4638;SDS011;2332;38.646;-9.154;2022-08-11T13:45:02;4.47;;;3.87;;
4638;SDS011;2332;38.646;-9.154;2022-08-11T13:47:28;8.30;;;4.10;;
4638;SDS011;2332;38.646;-9.154;2022-08-11T13:49:54;7.43;;;4.00;;
4638;SDS011;2332;38.646;-9.154;2022-08-11T13:52:20;9.80;;;4.70;;
4638;SDS011;2332;38.646;-9.154;2022-08-11T13:54:46;10.07;;;3.80;;
4638;SDS011;2332;38.646;-9.154;2022-08-11T13:57:13;6.07;;;4.20;;
4638;SDS011;2332;38.646;-9.154;2022-08-11T13:59:40;12.87;;;4.50;;
4638;SDS011;2332;38.646;-9.154;2022-08-11T14:02:07;8.37;;;4.80;;
4638;SDS011;2332;38.646;-9.154;2022-08-11T14:04:47;8.33;;;4.43;;
4638;SDS011;2332;38.646;-9.154;2022-08-11T14:07:19;6.70;;;4.43;;
4638;SDS011;2332;38.646;-9.154;2022-08-11T14:09:46;6.40;;;3.80;;
4638;SDS011;2332;38.646;-9.154;2022-08-11T14:12:22;11.20;;;4.60;;
4638;SDS011;2332;38.646;-9.154;2022-08-11T14:15:28;5.97;;;3.97;;
4638;SDS011;2332;38.646;-9.154;2022-08-11T14:20:36;12.60;;;4.80;;
4638;SDS011;2332;38.646;-9.154;2022-08-11T14:23:27;6.70;;;3.90;;
4638;SDS011;2332;38.646;-9.154;2022-08-11T14:25:55;8.40;;;4.23;;
4638;SDS011;2332;38.646;-9.154;2022-08-11T14:28:40;7.53;;;4.33;;
4638;SDS011;2332;38.646;-9.154;2022-08-11T14:31:06;10.57;;;4.40;;
4638;SDS011;2332;38.646;-9.154;2022-08-11T14:33:32;9.03;;;4.13;;
4638;SDS011;2332;38.646;-9.154;2022-08-11T14:36:00;11.50;;;4.23;;
4638;SDS011;2332;38.646;-9.154;2022-08-11T14:38:31;7.80;;;4.70;;
4638;SDS011;2332;38.646;-9.154;2022-08-11T14:40:58;9.63;;;4.43;;
4638;SDS011;2332;38.646;-9.154;2022-08-11T14:43:42;9.97;;;4.33;;
4638;SDS011;2332;38.646;-9.154;2022-08-11T14:46:27;9.27;;;4.20;;
4638;SDS011;2332;38.646;-9.154;2022-08-11T14:49:11;14.93;;;5.13;;
4638;SDS011;2332;38.646;-9.154;2022-08-11T14:51:39;7.13;;;3.57;;
4638;SDS011;2332;38.646;-9.154;2022-08-11T14:54:05;17.47;;;5.30;;
4638;SDS011;2332;38.646;-9.154;2022-08-11T14:56:50;8.40;;;4.10;;
4638;SDS011;2332;38.646;-9.154;2022-08-11T14:59:17;9.63;;;4.50;;
4638;SDS011;2332;38.646;-9.154;2022-08-11T15:01:43;7.33;;;4.47;;
4638;SDS011;2332;38.646;-9.154;2022-08-11T15:04:27;9.70;;;4.10;;
4638;SDS011;2332;38.646;-9.154;2022-08-11T15:06:52;8.67;;;3.73;;
4638;SDS011;2332;38.646;-9.154;2022-08-11T15:09:18;5.97;;;4.30;;
4638;SDS011;2332;38.646;-9.154;2022-08-11T15:11:44;10.37;;;4.27;;
4638;SDS011;2332;38.646;-9.154;2022-08-11T15:14:28;13.40;;;4.10;;
4638;SDS011;2332;38.646;-9.154;2022-08-11T15:17:12;8.60;;;4.07;;
4638;SDS011;2332;38.646;-9.154;2022-08-11T15:19:40;6.70;;;3.90;;
4638;SDS011;2332;38.646;-9.154;2022-08-11T15:22:29;10.20;;;4.70;;
4638;SDS011;2332;38.646;-9.154;2022-08-11T15:25:13;7.27;;;4.80;;
4638;SDS011;2332;38.646;-9.154;2022-08-11T15:27:39;13.90;;;4.37;;
4638;SDS011;2332;38.646;-9.154;2022-08-11T15:30:24;6.07;;;4.07;;
4638;SDS011;2332;38.646;-9.154;2022-08-11T15:33:10;6.80;;;4.27;;
4638;SDS011;2332;38.646;-9.154;2022-08-11T15:35:55;13.17;;;5.30;;
4638;SDS011;2332;38.646;-9.154;2022-08-11T15:38:40;9.70;;;4.20;;
4638;SDS011;2332;38.646;-9.154;2022-08-11T15:41:08;9.67;;;4.13;;
4638;SDS011;2332;38.646;-9.154;2022-08-11T15:43:55;8.30;;;4.50;;
4638;SDS011;2332;38.646;-9.154;2022-08-11T15:46:41;9.60;;;4.73;;
4638;SDS011;2332;38.646;-9.154;2022-08-11T15:49:11;13.80;;;5.30;;
4638;SDS011;2332;38.646;-9.154;2022-08-11T15:51:42;8.93;;;4.20;;
4638;SDS011;2332;38.646;-9.154;2022-08-11T15:54:12;10.33;;;4.20;;
4638;SDS011;2332;38.646;-9.154;2022-08-11T15:56:41;6.63;;;4.10;;
4638;SDS011;2332;38.646;-9.154;2022-08-11T15:59:08;10.00;;;4.63;;
4638;SDS011;2332;38.646;-9.154;2022-08-11T16:01:54;8.80;;;4.53;;
4638;SDS011;2332;38.646;-9.154;2022-08-11T16:04:40;8.30;;;4.40;;
4638;SDS011;2332;38.646;-9.154;2022-08-11T16:07:25;15.00;;;4.50;;
4638;SDS011;2332;38.646;-9.154;2022-08-11T16:09:54;7.50;;;3.80;;
4638;SDS011;2332;38.646;-9.154;2022-08-11T16:12:31;10.50;;;4.40;;
4638;SDS011;2332;38.646;-9.154;2022-08-11T16:15:02;8.60;;;4.10;;
4638;SDS011;2332;38.646;-9.154;2022-08-11T16:17:49;12.80;;;4.00;;
4638;SDS011;2332;38.646;-9.154;2022-08-11T16:20:21;10.03;;;4.23;;
4638;SDS011;2332;38.646;-9.154;2022-08-11T16:22:49;14.30;;;4.50;;
4638;SDS011;2332;38.646;-9.154;2022-08-11T16:25:18;5.20;;;3.97;;
4638;SDS011;2332;38.646;-9.154;2022-08-11T16:27:51;4.97;;;3.43;;
4638;SDS011;2332;38.646;-9.154;2022-08-11T16:30:19;6.37;;;4.27;;
4638;SDS011;2332;38.646;-9.154;2022-08-11T16:32:47;9.13;;;4.80;;
4638;SDS011;2332;38.646;-9.154;2022-08-11T16:35:23;8.80;;;4.80;;
4638;SDS011;2332;38.646;-9.154;2022-08-11T16:38:08;8.70;;;4.23;;
4638;SDS011;2332;38.646;-9.154;2022-08-11T16:40:53;10.97;;;4.30;;
4638;SDS011;2332;38.646;-9.154;2022-08-11T16:43:24;13.27;;;4.10;;
4638;SDS011;2332;38.646;-9.154;2022-08-11T16:46:11;11.50;;;4.30;;
4638;SDS011;2332;38.646;-9.154;2022-08-11T16:48:56;6.40;;;4.00;;
4638;SDS011;2332;38.646;-9.154;2022-08-11T16:51:23;11.43;;;4.47;;
4638;SDS011;2332;38.646;-9.154;2022-08-11T16:53:49;7.30;;;4.50;;
4638;SDS011;2332;38.646;-9.154;2022-08-11T16:56:15;6.10;;;3.80;;
4638;SDS011;2332;38.646;-9.154;2022-08-11T16:58:44;10.17;;;4.40;;
4638;SDS011;2332;38.646;-9.154;2022-08-11T17:01:30;8.80;;;4.40;;
4638;SDS011;2332;38.646;-9.154;2022-08-11T17:03:59;9.37;;;5.40;;
4638;SDS011;2332;38.646;-9.154;2022-08-11T17:06:48;9.30;;;5.10;;
4638;SDS011;2332;38.646;-9.154;2022-08-11T17:09:33;10.27;;;5.03;;
4638;SDS011;2332;38.646;-9.154;2022-08-11T17:12:22;16.57;;;5.30;;
4638;SDS011;2332;38.646;-9.154;2022-08-11T17:15:09;9.90;;;5.63;;
4638;SDS011;2332;38.646;-9.154;2022-08-11T17:17:57;26.83;;;5.67;;
4638;SDS011;2332;38.646;-9.154;2022-08-11T17:20:23;16.00;;;5.73;;
4638;SDS011;2332;38.646;-9.154;2022-08-11T17:22:50;12.00;;;5.30;;
4638;SDS011;2332;38.646;-9.154;2022-08-11T17:25:35;12.10;;;5.67;;
4638;SDS011;2332;38.646;-9.154;2022-08-11T17:28:00;21.57;;;6.70;;
4638;SDS011;2332;38.646;-9.154;2022-08-11T17:30:27;10.67;;;5.10;;
4638;SDS011;2332;38.646;-9.154;2022-08-11T17:33:13;8.80;;;5.07;;
4638;SDS011;2332;38.646;-9.154;2022-08-11T17:35:58;16.00;;;6.23;;
4638;SDS011;2332;38.646;-9.154;2022-08-11T17:38:24;12.33;;;5.50;;
4638;SDS011;2332;38.646;-9.154;2022-08-11T17:40:51;12.20;;;5.43;;
4638;SDS011;2332;38.646;-9.154;2022-08-11T17:43:36;13.30;;;5.03;;
4638;SDS011;2332;38.646;-9.154;2022-08-11T17:46:21;13.97;;;5.20;;
4638;SDS011;2332;38.646;-9.154;2022-08-11T17:49:06;15.23;;;5.60;;
4638;SDS011;2332;38.646;-9.154;2022-08-11T17:51:34;15.63;;;5.20;;
4638;SDS011;2332;38.646;-9.154;2022-08-11T17:54:26;13.07;;;5.90;;
4638;SDS011;2332;38.646;-9.154;2022-08-11T17:57:12;15.00;;;5.70;;
4638;SDS011;2332;38.646;-9.154;2022-08-11T17:59:56;9.40;;;5.07;;
4638;SDS011;2332;38.646;-9.154;2022-08-11T18:05:16;14.30;;;5.23;;
4638;SDS011;2332;38.646;-9.154;2022-08-11T18:07:44;15.23;;;5.70;;
4638;SDS011;2332;38.646;-9.154;2022-08-11T18:10:29;12.10;;;6.10;;
4638;SDS011;2332;38.646;-9.154;2022-08-11T18:13:19;19.80;;;10.57;;
4638;SDS011;2332;38.646;-9.154;2022-08-11T18:16:05;13.67;;;5.73;;
4638;SDS011;2332;38.646;-9.154;2022-08-11T18:18:50;11.90;;;6.70;;
4638;SDS011;2332;38.646;-9.154;2022-08-11T18:21:35;11.90;;;5.73;;
4638;SDS011;2332;38.646;-9.154;2022-08-11T18:24:19;13.77;;;6.37;;
4638;SDS011;2332;38.646;-9.154;2022-08-11T18:27:06;20.77;;;6.87;;
4638;SDS011;2332;38.646;-9.154;2022-08-11T18:29:53;20.00;;;7.30;;
4638;SDS011;2332;38.646;-9.154;2022-08-11T18:32:39;16.60;;;7.00;;
4638;SDS011;2332;38.646;-9.154;2022-08-11T18:35:24;15.83;;;6.97;;
4638;SDS011;2332;38.646;-9.154;2022-08-11T18:38:09;13.13;;;6.40;;
4638;SDS011;2332;38.646;-9.154;2022-08-11T18:40:54;22.50;;;7.60;;
4638;SDS011;2332;38.646;-9.154;2022-08-11T18:43:41;15.73;;;6.90;;
4638;SDS011;2332;38.646;-9.154;2022-08-11T18:46:26;15.37;;;6.60;;
4638;SDS011;2332;38.646;-9.154;2022-08-11T18:49:17;15.17;;;6.20;;
4638;SDS011;2332;38.646;-9.154;2022-08-11T18:52:02;18.13;;;7.50;;
4638;SDS011;2332;38.646;-9.154;2022-08-11T18:54:47;31.30;;;9.40;;
4638;SDS011;2332;38.646;-9.154;2022-08-11T18:57:32;24.10;;;10.90;;
4638;SDS011;2332;38.646;-9.154;2022-08-11T19:00:18;26.77;;;9.03;;
4638;SDS011;2332;38.646;-9.154;2022-08-11T19:03:02;19.57;;;8.50;;
4638;SDS011;2332;38.646;-9.154;2022-08-11T19:05:47;18.70;;;7.30;;
4638;SDS011;2332;38.646;-9.154;2022-08-11T19:08:39;22.13;;;7.67;;
4638;SDS011;2332;38.646;-9.154;2022-08-11T19:11:25;23.57;;;7.70;;